Main page
METAR-TAF:

METAR-TAF

Airports :

Frederick Regional Airport

Frederick, Oklahoma, United States

latitude: 34-20-40N, longitude: 098-58-59W, elevation: 1253 ft

Current weather observation

The report was made 43 minutes ago, at 18:53 UTC
Wind 23 mph from the South/Southeast with gusts up to 33 mph
Temperature 93°F
Humidity 50%
Pressure 29.73 in. Hg
Visibility: 10 miles
Few clouds at a height of 4700 ft

METAR: KFDR 171853Z AUTO 15020G29KT 10SM FEW047 34/22 A2973 RMK AO2 PK WND 17030/1823 SLP045 T03390217

Time: 14:36 (19:36 UTC)


TAF: missing

Weather observations and forecasts of more than 4000 airports (METAR and TAF reports).

The available stations are represented by yellow and red dots on the map.

Hover mouse over dot to see the name of the station.

Then click to see weather observations and forecasts.

To change the map : click on the green buttons with a black cross to zoom in, on the green button with a dash to zoom out, or on the green arrows for adjacent maps.


METAR-TAF: